sensor_id;sensor_type;location;lat;lon;timestamp;temperature;humidity
11894;DHT22;6006;49.696;8.662;2023-10-31T00:01:03;11.80;99.90
11894;DHT22;6006;49.696;8.662;2023-10-31T00:03:31;11.80;99.90
11894;DHT22;6006;49.696;8.662;2023-10-31T00:05:59;11.80;99.90
11894;DHT22;6006;49.696;8.662;2023-10-31T00:08:26;11.70;99.90
11894;DHT22;6006;49.696;8.662;2023-10-31T00:10:53;11.70;99.90
11894;DHT22;6006;49.696;8.662;2023-10-31T00:13:19;11.60;99.90
11894;DHT22;6006;49.696;8.662;2023-10-31T00:15:46;11.50;99.90
11894;DHT22;6006;49.696;8.662;2023-10-31T00:18:13;11.50;99.90
11894;DHT22;6006;49.696;8.662;2023-10-31T00:20:40;11.50;99.90
11894;DHT22;6006;49.696;8.662;2023-10-31T00:23:08;11.40;99.90
11894;DHT22;6006;49.696;8.662;2023-10-31T00:25:35;11.40;99.90
11894;DHT22;6006;49.696;8.662;2023-10-31T00:28:02;11.40;99.90
11894;DHT22;6006;49.696;8.662;2023-10-31T00:30:29;11.30;99.90
11894;DHT22;6006;49.696;8.662;2023-10-31T00:32:56;11.30;99.90
11894;DHT22;6006;49.696;8.662;2023-10-31T00:35:23;11.30;99.90
11894;DHT22;6006;49.696;8.662;2023-10-31T00:37:50;11.30;99.90
11894;DHT22;6006;49.696;8.662;2023-10-31T00:40:18;11.30;99.90
11894;DHT22;6006;49.696;8.662;2023-10-31T00:42:45;11.20;99.90
11894;DHT22;6006;49.696;8.662;2023-10-31T00:45:12;11.10;99.90
11894;DHT22;6006;49.696;8.662;2023-10-31T00:47:39;11.00;99.90
11894;DHT22;6006;49.696;8.662;2023-10-31T00:50:07;11.00;99.90
11894;DHT22;6006;49.696;8.662;2023-10-31T00:52:34;11.00;99.90
11894;DHT22;6006;49.696;8.662;2023-10-31T00:55:01;11.00;99.90
11894;DHT22;6006;49.696;8.662;2023-10-31T00:57:29;10.90;99.90
11894;DHT22;6006;49.696;8.662;2023-10-31T00:59:56;10.90;99.90
11894;DHT22;6006;49.696;8.662;2023-10-31T01:02:23;10.90;99.90
11894;DHT22;6006;49.696;8.662;2023-10-31T01:04:50;10.90;99.90
11894;DHT22;6006;49.696;8.662;2023-10-31T01:07:17;10.80;99.90
11894;DHT22;6006;49.696;8.662;2023-10-31T01:09:44;10.80;99.90
11894;DHT22;6006;49.696;8.662;2023-10-31T01:12:11;10.80;99.90
11894;DHT22;6006;49.696;8.662;2023-10-31T01:14:39;10.80;99.90
11894;DHT22;6006;49.696;8.662;2023-10-31T01:17:06;10.80;99.90
11894;DHT22;6006;49.696;8.662;2023-10-31T01:19:33;10.70;99.90
11894;DHT22;6006;49.696;8.662;2023-10-31T01:22:00;10.70;99.90
11894;DHT22;6006;49.696;8.662;2023-10-31T01:24:27;10.70;99.90
11894;DHT22;6006;49.696;8.662;2023-10-31T01:26:54;10.60;99.90
11894;DHT22;6006;49.696;8.662;2023-10-31T01:29:21;10.50;99.90
11894;DHT22;6006;49.696;8.662;2023-10-31T01:31:49;10.40;99.90
11894;DHT22;6006;49.696;8.662;2023-10-31T01:34:16;10.40;99.90
11894;DHT22;6006;49.696;8.662;2023-10-31T01:36:43;10.40;99.90
11894;DHT22;6006;49.696;8.662;2023-10-31T01:39:10;10.20;99.90
11894;DHT22;6006;49.696;8.662;2023-10-31T01:41:36;10.10;99.90
11894;DHT22;6006;49.696;8.662;2023-10-31T01:44:04;10.10;99.90
11894;DHT22;6006;49.696;8.662;2023-10-31T01:46:30;10.00;99.90
11894;DHT22;6006;49.696;8.662;2023-10-31T01:48:59;9.90;99.90
11894;DHT22;6006;49.696;8.662;2023-10-31T01:51:26;9.90;99.90
11894;DHT22;6006;49.696;8.662;2023-10-31T01:53:55;10.00;99.90
11894;DHT22;6006;49.696;8.662;2023-10-31T01:56:23;10.20;99.90
11894;DHT22;6006;49.696;8.662;2023-10-31T01:58:53;10.20;99.90
11894;DHT22;6006;49.696;8.662;2023-10-31T02:01:20;10.20;99.90
11894;DHT22;6006;49.696;8.662;2023-10-31T02:03:47;10.20;99.90
11894;DHT22;6006;49.696;8.662;2023-10-31T02:06:16;10.10;99.90
11894;DHT22;6006;49.696;8.662;2023-10-31T02:08:43;10.10;99.90
11894;DHT22;6006;49.696;8.662;2023-10-31T02:11:09;10.10;99.90
11894;DHT22;6006;49.696;8.662;2023-10-31T02:13:36;10.10;99.90
11894;DHT22;6006;49.696;8.662;2023-10-31T02:16:04;10.20;99.90
11894;DHT22;6006;49.696;8.662;2023-10-31T02:18:31;10.20;99.90
11894;DHT22;6006;49.696;8.662;2023-10-31T02:20:58;10.10;99.90
11894;DHT22;6006;49.696;8.662;2023-10-31T02:23:26;10.00;99.90
11894;DHT22;6006;49.696;8.662;2023-10-31T02:25:53;10.00;99.90
11894;DHT22;6006;49.696;8.662;2023-10-31T02:28:20;10.00;99.90
11894;DHT22;6006;49.696;8.662;2023-10-31T02:30:47;10.00;99.90
11894;DHT22;6006;49.696;8.662;2023-10-31T02:33:14;10.10;99.90
11894;DHT22;6006;49.696;8.662;2023-10-31T02:35:40;10.00;99.90
11894;DHT22;6006;49.696;8.662;2023-10-31T02:38:07;10.10;99.90
11894;DHT22;6006;49.696;8.662;2023-10-31T02:40:35;10.00;99.90
11894;DHT22;6006;49.696;8.662;2023-10-31T02:43:02;10.00;99.90
11894;DHT22;6006;49.696;8.662;2023-10-31T02:45:29;10.00;99.90
11894;DHT22;6006;49.696;8.662;2023-10-31T02:47:56;10.00;99.90
11894;DHT22;6006;49.696;8.662;2023-10-31T02:50:23;10.00;99.90
11894;DHT22;6006;49.696;8.662;2023-10-31T02:52:50;10.10;99.90
11894;DHT22;6006;49.696;8.662;2023-10-31T02:55:17;10.10;99.90
11894;DHT22;6006;49.696;8.662;2023-10-31T02:57:45;10.20;99.90
11894;DHT22;6006;49.696;8.662;2023-10-31T03:00:12;10.20;99.90
11894;DHT22;6006;49.696;8.662;2023-10-31T03:02:39;10.20;99.90
11894;DHT22;6006;49.696;8.662;2023-10-31T03:05:07;10.20;99.90
11894;DHT22;6006;49.696;8.662;2023-10-31T03:07:33;10.30;99.90
11894;DHT22;6006;49.696;8.662;2023-10-31T03:10:00;10.30;99.90
11894;DHT22;6006;49.696;8.662;2023-10-31T03:12:28;10.30;99.90
11894;DHT22;6006;49.696;8.662;2023-10-31T03:14:56;10.30;99.90
11894;DHT22;6006;49.696;8.662;2023-10-31T03:17:23;10.30;99.90
11894;DHT22;6006;49.696;8.662;2023-10-31T03:19:51;10.30;99.90
11894;DHT22;6006;49.696;8.662;2023-10-31T03:22:17;10.40;99.90
11894;DHT22;6006;49.696;8.662;2023-10-31T03:24:44;10.40;99.90
11894;DHT22;6006;49.696;8.662;2023-10-31T03:27:11;10.30;99.90
11894;DHT22;6006;49.696;8.662;2023-10-31T03:29:38;10.30;99.90
11894;DHT22;6006;49.696;8.662;2023-10-31T03:32:07;10.30;99.90
11894;DHT22;6006;49.696;8.662;2023-10-31T03:34:34;10.30;99.90
11894;DHT22;6006;49.696;8.662;2023-10-31T03:37:01;10.30;99.90
11894;DHT22;6006;49.696;8.662;2023-10-31T03:39:28;10.30;99.90
11894;DHT22;6006;49.696;8.662;2023-10-31T03:41:55;10.30;99.90
11894;DHT22;6006;49.696;8.662;2023-10-31T03:44:22;10.30;99.90
11894;DHT22;6006;49.696;8.662;2023-10-31T03:46:49;10.30;99.90
11894;DHT22;6006;49.696;8.662;2023-10-31T03:49:17;10.30;99.90
11894;DHT22;6006;49.696;8.662;2023-10-31T03:51:44;10.30;99.90
11894;DHT22;6006;49.696;8.662;2023-10-31T03:54:11;10.30;99.90
11894;DHT22;6006;49.696;8.662;2023-10-31T03:56:39;10.30;99.90
11894;DHT22;6006;49.696;8.662;2023-10-31T03:59:06;10.30;99.90
11894;DHT22;6006;49.696;8.662;2023-10-31T04:01:33;10.30;99.90
11894;DHT22;6006;49.696;8.662;2023-10-31T04:04:00;10.30;99.90
11894;DHT22;6006;49.696;8.662;2023-10-31T04:06:28;10.30;99.90
11894;DHT22;6006;49.696;8.662;2023-10-31T04:08:55;10.30;99.90
11894;DHT22;6006;49.696;8.662;2023-10-31T04:11:22;10.30;99.90
11894;DHT22;6006;49.696;8.662;2023-10-31T04:13:49;10.30;99.90
11894;DHT22;6006;49.696;8.662;2023-10-31T04:16:16;10.30;99.90
11894;DHT22;6006;49.696;8.662;2023-10-31T04:18:43;10.20;99.90
11894;DHT22;6006;49.696;8.662;2023-10-31T04:21:10;10.20;99.90
11894;DHT22;6006;49.696;8.662;2023-10-31T04:23:38;10.20;99.90
11894;DHT22;6006;49.696;8.662;2023-10-31T04:26:05;10.20;99.90
11894;DHT22;6006;49.696;8.662;2023-10-31T04:28:33;10.20;99.90
11894;DHT22;6006;49.696;8.662;2023-10-31T04:31:00;10.20;99.90
11894;DHT22;6006;49.696;8.662;2023-10-31T04:33:27;10.20;99.90
11894;DHT22;6006;49.696;8.662;2023-10-31T04:35:54;10.20;99.90
11894;DHT22;6006;49.696;8.662;2023-10-31T04:38:21;10.20;99.90
11894;DHT22;6006;49.696;8.662;2023-10-31T04:40:49;10.20;99.90
11894;DHT22;6006;49.696;8.662;2023-10-31T04:43:16;10.20;99.90
11894;DHT22;6006;49.696;8.662;2023-10-31T04:45:43;10.20;99.90
11894;DHT22;6006;49.696;8.662;2023-10-31T04:48:09;10.20;99.90
11894;DHT22;6006;49.696;8.662;2023-10-31T04:50:37;10.20;99.90
11894;DHT22;6006;49.696;8.662;2023-10-31T04:53:04;10.20;99.90
11894;DHT22;6006;49.696;8.662;2023-10-31T04:55:31;10.20;99.90
11894;DHT22;6006;49.696;8.662;2023-10-31T04:57:59;10.20;99.90
11894;DHT22;6006;49.696;8.662;2023-10-31T05:00:26;10.20;99.90
11894;DHT22;6006;49.696;8.662;2023-10-31T05:02:53;10.20;99.90
11894;DHT22;6006;49.696;8.662;2023-10-31T05:05:21;10.20;99.90
11894;DHT22;6006;49.696;8.662;2023-10-31T05:07:48;10.20;99.90
11894;DHT22;6006;49.696;8.662;2023-10-31T05:10:15;10.20;99.90
11894;DHT22;6006;49.696;8.662;2023-10-31T05:12:42;10.20;99.90
11894;DHT22;6006;49.696;8.662;2023-10-31T05:15:11;10.20;99.90
11894;DHT22;6006;49.696;8.662;2023-10-31T05:17:38;10.30;99.90
11894;DHT22;6006;49.696;8.662;2023-10-31T05:20:05;10.30;99.90
11894;DHT22;6006;49.696;8.662;2023-10-31T05:22:34;10.30;99.90
11894;DHT22;6006;49.696;8.662;2023-10-31T05:25:01;10.30;99.90
11894;DHT22;6006;49.696;8.662;2023-10-31T05:27:28;10.30;99.90
11894;DHT22;6006;49.696;8.662;2023-10-31T05:29:55;10.30;99.90
11894;DHT22;6006;49.696;8.662;2023-10-31T05:32:23;10.30;99.90
11894;DHT22;6006;49.696;8.662;2023-10-31T05:34:50;10.30;99.90
11894;DHT22;6006;49.696;8.662;2023-10-31T05:37:17;10.20;99.90
11894;DHT22;6006;49.696;8.662;2023-10-31T05:39:44;10.30;99.90
11894;DHT22;6006;49.696;8.662;2023-10-31T05:42:14;10.30;99.90
11894;DHT22;6006;49.696;8.662;2023-10-31T05:44:41;10.30;99.90
11894;DHT22;6006;49.696;8.662;2023-10-31T05:47:07;10.30;99.90
11894;DHT22;6006;49.696;8.662;2023-10-31T05:49:36;10.20;99.90
11894;DHT22;6006;49.696;8.662;2023-10-31T05:52:03;10.20;99.90
11894;DHT22;6006;49.696;8.662;2023-10-31T05:54:30;10.20;99.90
11894;DHT22;6006;49.696;8.662;2023-10-31T05:56:57;10.20;99.90
11894;DHT22;6006;49.696;8.662;2023-10-31T05:59:24;10.20;99.90
11894;DHT22;6006;49.696;8.662;2023-10-31T06:01:51;10.20;99.90
11894;DHT22;6006;49.696;8.662;2023-10-31T06:04:17;10.20;99.90
11894;DHT22;6006;49.696;8.662;2023-10-31T06:06:46;10.20;99.90
11894;DHT22;6006;49.696;8.662;2023-10-31T06:09:13;10.20;99.90
11894;DHT22;6006;49.696;8.662;2023-10-31T06:11:41;10.20;99.90
11894;DHT22;6006;49.696;8.662;2023-10-31T06:14:09;10.20;99.90
11894;DHT22;6006;49.696;8.662;2023-10-31T06:16:40;10.30;99.90
11894;DHT22;6006;49.696;8.662;2023-10-31T06:19:07;10.30;99.90
11894;DHT22;6006;49.696;8.662;2023-10-31T06:21:33;10.20;99.90
11894;DHT22;6006;49.696;8.662;2023-10-31T06:24:03;10.20;99.90
11894;DHT22;6006;49.696;8.662;2023-10-31T06:26:29;10.20;99.90
11894;DHT22;6006;49.696;8.662;2023-10-31T06:28:56;10.20;99.90
11894;DHT22;6006;49.696;8.662;2023-10-31T06:31:23;10.20;99.90
11894;DHT22;6006;49.696;8.662;2023-10-31T06:33:50;10.20;99.90
11894;DHT22;6006;49.696;8.662;2023-10-31T06:36:17;10.30;99.90
11894;DHT22;6006;49.696;8.662;2023-10-31T06:38:44;10.30;99.90
11894;DHT22;6006;49.696;8.662;2023-10-31T06:41:12;10.30;99.90
11894;DHT22;6006;49.696;8.662;2023-10-31T06:43:39;10.30;99.90
11894;DHT22;6006;49.696;8.662;2023-10-31T06:46:06;10.20;99.90
11894;DHT22;6006;49.696;8.662;2023-10-31T06:48:33;10.30;99.90
11894;DHT22;6006;49.696;8.662;2023-10-31T06:51:00;10.30;99.90
11894;DHT22;6006;49.696;8.662;2023-10-31T06:53:27;10.30;99.90
11894;DHT22;6006;49.696;8.662;2023-10-31T06:55:54;10.30;99.90
11894;DHT22;6006;49.696;8.662;2023-10-31T06:58:22;10.30;99.90
11894;DHT22;6006;49.696;8.662;2023-10-31T07:00:49;10.30;99.90
11894;DHT22;6006;49.696;8.662;2023-10-31T07:03:17;10.30;99.90
11894;DHT22;6006;49.696;8.662;2023-10-31T07:05:44;10.30;99.90
11894;DHT22;6006;49.696;8.662;2023-10-31T07:08:11;10.30;99.90
11894;DHT22;6006;49.696;8.662;2023-10-31T07:10:37;10.40;99.90
11894;DHT22;6006;49.696;8.662;2023-10-31T07:13:05;10.40;99.90
11894;DHT22;6006;49.696;8.662;2023-10-31T07:15:33;10.40;99.90
11894;DHT22;6006;49.696;8.662;2023-10-31T07:18:04;10.40;99.90
11894;DHT22;6006;49.696;8.662;2023-10-31T07:20:31;10.40;99.90
11894;DHT22;6006;49.696;8.662;2023-10-31T07:22:58;10.40;99.90
11894;DHT22;6006;49.696;8.662;2023-10-31T07:25:25;10.40;99.90
11894;DHT22;6006;49.696;8.662;2023-10-31T07:27:52;10.40;99.90
11894;DHT22;6006;49.696;8.662;2023-10-31T07:30:19;10.40;99.90
11894;DHT22;6006;49.696;8.662;2023-10-31T07:32:47;10.40;99.90
11894;DHT22;6006;49.696;8.662;2023-10-31T07:35:14;10.40;99.90
11894;DHT22;6006;49.696;8.662;2023-10-31T07:37:41;10.30;99.90
11894;DHT22;6006;49.696;8.662;2023-10-31T07:40:08;10.30;99.90
11894;DHT22;6006;49.696;8.662;2023-10-31T07:42:35;10.40;99.90
11894;DHT22;6006;49.696;8.662;2023-10-31T07:45:03;10.40;99.90
11894;DHT22;6006;49.696;8.662;2023-10-31T07:47:30;10.50;99.90
11894;DHT22;6006;49.696;8.662;2023-10-31T07:49:58;10.50;99.90
11894;DHT22;6006;49.696;8.662;2023-10-31T07:52:25;10.50;99.90
11894;DHT22;6006;49.696;8.662;2023-10-31T07:54:52;10.50;99.90
11894;DHT22;6006;49.696;8.662;2023-10-31T07:57:19;10.60;99.90
11894;DHT22;6006;49.696;8.662;2023-10-31T07:59:46;10.50;99.90
11894;DHT22;6006;49.696;8.662;2023-10-31T08:02:13;10.60;99.90
11894;DHT22;6006;49.696;8.662;2023-10-31T08:04:40;10.60;99.90
11894;DHT22;6006;49.696;8.662;2023-10-31T08:07:08;10.60;99.90
11894;DHT22;6006;49.696;8.662;2023-10-31T08:09:35;10.60;99.90
11894;DHT22;6006;49.696;8.662;2023-10-31T08:12:02;10.60;99.90
11894;DHT22;6006;49.696;8.662;2023-10-31T08:14:29;10.60;99.90
11894;DHT22;6006;49.696;8.662;2023-10-31T08:16:56;10.70;99.90
11894;DHT22;6006;49.696;8.662;2023-10-31T08:19:23;10.70;99.90
11894;DHT22;6006;49.696;8.662;2023-10-31T08:21:50;10.70;99.90
11894;DHT22;6006;49.696;8.662;2023-10-31T08:24:18;10.70;99.90
11894;DHT22;6006;49.696;8.662;2023-10-31T08:26:45;10.70;99.90
11894;DHT22;6006;49.696;8.662;2023-10-31T08:29:12;10.70;99.90
11894;DHT22;6006;49.696;8.662;2023-10-31T08:31:39;10.70;99.90
11894;DHT22;6006;49.696;8.662;2023-10-31T08:34:06;10.70;99.90
11894;DHT22;6006;49.696;8.662;2023-10-31T08:36:33;10.80;99.90
11894;DHT22;6006;49.696;8.662;2023-10-31T08:39:00;10.80;99.90
11894;DHT22;6006;49.696;8.662;2023-10-31T08:41:28;10.80;99.90
11894;DHT22;6006;49.696;8.662;2023-10-31T08:43:55;10.90;99.90
11894;DHT22;6006;49.696;8.662;2023-10-31T08:46:23;10.90;99.90
11894;DHT22;6006;49.696;8.662;2023-10-31T08:48:50;11.00;99.90
11894;DHT22;6006;49.696;8.662;2023-10-31T08:51:17;11.10;99.90
11894;DHT22;6006;49.696;8.662;2023-10-31T08:53:45;11.10;99.90
11894;DHT22;6006;49.696;8.662;2023-10-31T08:56:11;11.10;99.90
11894;DHT22;6006;49.696;8.662;2023-10-31T08:58:40;11.20;99.90
11894;DHT22;6006;49.696;8.662;2023-10-31T09:01:07;11.30;99.90
11894;DHT22;6006;49.696;8.662;2023-10-31T09:03:34;11.30;21.20
11894;DHT22;6006;49.696;8.662;2023-10-31T09:06:01;11.30;1.00
11894;DHT22;6006;49.696;8.662;2023-10-31T09:08:28;11.30;1.00
11894;DHT22;6006;49.696;8.662;2023-10-31T09:10:55;11.30;12.50
11894;DHT22;6006;49.696;8.662;2023-10-31T09:13:22;11.40;1.00
11894;DHT22;6006;49.696;8.662;2023-10-31T09:15:50;11.40;1.00
11894;DHT22;6006;49.696;8.662;2023-10-31T09:18:17;11.50;1.00
11894;DHT22;6006;49.696;8.662;2023-10-31T09:20:44;11.50;1.00
11894;DHT22;6006;49.696;8.662;2023-10-31T09:23:11;11.50;1.00
11894;DHT22;6006;49.696;8.662;2023-10-31T09:25:38;11.40;1.00
11894;DHT22;6006;49.696;8.662;2023-10-31T09:28:05;11.40;1.00
11894;DHT22;6006;49.696;8.662;2023-10-31T09:30:32;11.40;1.00
11894;DHT22;6006;49.696;8.662;2023-10-31T09:33:00;11.40;1.00
11894;DHT22;6006;49.696;8.662;2023-10-31T09:35:27;11.40;1.00
11894;DHT22;6006;49.696;8.662;2023-10-31T09:37:54;11.40;1.00
11894;DHT22;6006;49.696;8.662;2023-10-31T09:40:21;11.50;1.00
11894;DHT22;6006;49.696;8.662;2023-10-31T09:42:48;11.50;1.00
11894;DHT22;6006;49.696;8.662;2023-10-31T09:45:16;11.50;1.00
11894;DHT22;6006;49.696;8.662;2023-10-31T09:47:43;11.60;1.00
11894;DHT22;6006;49.696;8.662;2023-10-31T09:50:11;11.60;1.00
11894;DHT22;6006;49.696;8.662;2023-10-31T09:52:39;11.60;1.00
11894;DHT22;6006;49.696;8.662;2023-10-31T09:55:06;11.60;1.00
11894;DHT22;6006;49.696;8.662;2023-10-31T09:57:34;11.60;1.00
11894;DHT22;6006;49.696;8.662;2023-10-31T10:00:01;11.70;1.00
11894;DHT22;6006;49.696;8.662;2023-10-31T10:02:28;11.80;1.00
11894;DHT22;6006;49.696;8.662;2023-10-31T10:04:55;12.00;1.00
11894;DHT22;6006;49.696;8.662;2023-10-31T10:07:23;12.10;1.00
11894;DHT22;6006;49.696;8.662;2023-10-31T10:09:50;12.30;1.00
11894;DHT22;6006;49.696;8.662;2023-10-31T10:12:17;12.50;1.00
11894;DHT22;6006;49.696;8.662;2023-10-31T10:14:45;12.60;1.00
11894;DHT22;6006;49.696;8.662;2023-10-31T10:17:14;12.70;99.90
11894;DHT22;6006;49.696;8.662;2023-10-31T10:19:42;12.80;99.90
11894;DHT22;6006;49.696;8.662;2023-10-31T10:22:09;12.90;99.90
11894;DHT22;6006;49.696;8.662;2023-10-31T10:24:41;13.00;99.90
11894;DHT22;6006;49.696;8.662;2023-10-31T10:27:08;12.90;1.00
11894;DHT22;6006;49.696;8.662;2023-10-31T10:29:35;13.00;1.00
11894;DHT22;6006;49.696;8.662;2023-10-31T10:32:05;13.00;86.30
11894;DHT22;6006;49.696;8.662;2023-10-31T10:34:34;13.00;99.90
11894;DHT22;6006;49.696;8.662;2023-10-31T10:37:05;13.00;91.20
11894;DHT22;6006;49.696;8.662;2023-10-31T10:39:33;13.10;99.90
11894;DHT22;6006;49.696;8.662;2023-10-31T10:42:08;13.10;99.90
11894;DHT22;6006;49.696;8.662;2023-10-31T10:44:36;13.00;38.10
11894;DHT22;6006;49.696;8.662;2023-10-31T10:47:05;13.00;1.00
11894;DHT22;6006;49.696;8.662;2023-10-31T10:49:34;12.90;1.00
11894;DHT22;6006;49.696;8.662;2023-10-31T10:52:10;12.90;99.90
11894;DHT22;6006;49.696;8.662;2023-10-31T10:54:45;12.90;99.90
11894;DHT22;6006;49.696;8.662;2023-10-31T10:57:21;13.00;19.50
11894;DHT22;6006;49.696;8.662;2023-10-31T10:59:52;13.00;1.00
11894;DHT22;6006;49.696;8.662;2023-10-31T11:02:20;12.80;1.00
11894;DHT22;6006;49.696;8.662;2023-10-31T11:04:49;13.00;99.90
11894;DHT22;6006;49.696;8.662;2023-10-31T11:07:17;12.90;99.90
11894;DHT22;6006;49.696;8.662;2023-10-31T11:09:46;12.90;99.90
11894;DHT22;6006;49.696;8.662;2023-10-31T11:12:17;12.80;1.00
11894;DHT22;6006;49.696;8.662;2023-10-31T11:14:46;12.80;1.00
11894;DHT22;6006;49.696;8.662;2023-10-31T11:17:20;12.70;99.90
11894;DHT22;6006;49.696;8.662;2023-10-31T11:19:50;12.70;1.00
11894;DHT22;6006;49.696;8.662;2023-10-31T11:22:17;12.80;16.60
11894;DHT22;6006;49.696;8.662;2023-10-31T11:24:44;12.90;55.50
11894;DHT22;6006;49.696;8.662;2023-10-31T11:27:11;13.00;1.00
11894;DHT22;6006;49.696;8.662;2023-10-31T11:29:40;13.00;56.80
11894;DHT22;6006;49.696;8.662;2023-10-31T11:32:08;13.10;99.90
11894;DHT22;6006;49.696;8.662;2023-10-31T11:34:38;13.30;99.90
11894;DHT22;6006;49.696;8.662;2023-10-31T11:37:31;13.10;1.00
11894;DHT22;6006;49.696;8.662;2023-10-31T11:40:22;13.10;1.00
11894;DHT22;6006;49.696;8.662;2023-10-31T11:42:50;13.00;99.90
11894;DHT22;6006;49.696;8.662;2023-10-31T11:45:33;13.00;1.00
11894;DHT22;6006;49.696;8.662;2023-10-31T11:48:00;12.90;65.40
11894;DHT22;6006;49.696;8.662;2023-10-31T11:50:27;12.90;1.00
11894;DHT22;6006;49.696;8.662;2023-10-31T11:53:05;12.90;1.00
11894;DHT22;6006;49.696;8.662;2023-10-31T11:55:34;12.90;1.00
11894;DHT22;6006;49.696;8.662;2023-10-31T11:58:18;12.80;99.20
11894;DHT22;6006;49.696;8.662;2023-10-31T12:00:47;12.90;91.80
11894;DHT22;6006;49.696;8.662;2023-10-31T12:03:16;12.80;1.00
11894;DHT22;6006;49.696;8.662;2023-10-31T12:05:53;12.90;1.00
11894;DHT22;6006;49.696;8.662;2023-10-31T12:08:27;12.90;1.00
11894;DHT22;6006;49.696;8.662;2023-10-31T12:11:04;12.90;1.00
11894;DHT22;6006;49.696;8.662;2023-10-31T12:13:31;12.90;99.90
11894;DHT22;6006;49.696;8.662;2023-10-31T12:15:59;12.80;99.90
11894;DHT22;6006;49.696;8.662;2023-10-31T12:18:27;12.80;1.00
11894;DHT22;6006;49.696;8.662;2023-10-31T12:20:54;12.90;99.90
11894;DHT22;6006;49.696;8.662;2023-10-31T12:23:21;13.10;1.00
11894;DHT22;6006;49.696;8.662;2023-10-31T12:25:49;13.40;99.90
11894;DHT22;6006;49.696;8.662;2023-10-31T12:28:19;13.80;99.90
11894;DHT22;6006;49.696;8.662;2023-10-31T12:30:47;14.40;99.90
11894;DHT22;6006;49.696;8.662;2023-10-31T12:33:15;14.10;1.00
11894;DHT22;6006;49.696;8.662;2023-10-31T12:35:43;14.00;1.60
11894;DHT22;6006;49.696;8.662;2023-10-31T12:38:11;14.00;1.00
11894;DHT22;6006;49.696;8.662;2023-10-31T12:40:39;13.90;99.90
11894;DHT22;6006;49.696;8.662;2023-10-31T12:43:06;13.70;99.90
11894;DHT22;6006;49.696;8.662;2023-10-31T12:45:33;13.70;81.10
11894;DHT22;6006;49.696;8.662;2023-10-31T12:48:01;13.60;99.90
11894;DHT22;6006;49.696;8.662;2023-10-31T12:50:31;13.60;99.90
11894;DHT22;6006;49.696;8.662;2023-10-31T12:52:58;13.40;1.00
11894;DHT22;6006;49.696;8.662;2023-10-31T12:55:27;13.30;99.90
11894;DHT22;6006;49.696;8.662;2023-10-31T12:57:54;13.30;1.00
11894;DHT22;6006;49.696;8.662;2023-10-31T13:00:22;13.10;9.70
11894;DHT22;6006;49.696;8.662;2023-10-31T13:02:59;13.10;1.00
11894;DHT22;6006;49.696;8.662;2023-10-31T13:05:27;13.10;1.00
11894;DHT22;6006;49.696;8.662;2023-10-31T13:07:56;13.20;1.00
11894;DHT22;6006;49.696;8.662;2023-10-31T13:10:26;13.30;1.00
11894;DHT22;6006;49.696;8.662;2023-10-31T13:12:53;13.30;1.00
11894;DHT22;6006;49.696;8.662;2023-10-31T13:15:22;13.50;99.90
11894;DHT22;6006;49.696;8.662;2023-10-31T13:17:49;13.90;1.00
11894;DHT22;6006;49.696;8.662;2023-10-31T13:20:18;14.40;1.00
11894;DHT22;6006;49.696;8.662;2023-10-31T13:22:45;15.20;1.00
11894;DHT22;6006;49.696;8.662;2023-10-31T13:25:15;16.00;1.00
11894;DHT22;6006;49.696;8.662;2023-10-31T13:27:43;16.40;1.00
11894;DHT22;6006;49.696;8.662;2023-10-31T13:30:11;16.50;1.00
11894;DHT22;6006;49.696;8.662;2023-10-31T13:32:39;16.30;1.00
11894;DHT22;6006;49.696;8.662;2023-10-31T13:35:07;15.70;1.00
11894;DHT22;6006;49.696;8.662;2023-10-31T13:37:34;15.20;1.00
11894;DHT22;6006;49.696;8.662;2023-10-31T13:40:01;15.30;1.00
11894;DHT22;6006;49.696;8.662;2023-10-31T13:42:30;15.30;1.00
11894;DHT22;6006;49.696;8.662;2023-10-31T13:44:57;15.30;1.00
11894;DHT22;6006;49.696;8.662;2023-10-31T13:47:24;15.10;1.00
11894;DHT22;6006;49.696;8.662;2023-10-31T13:49:50;15.10;1.00
11894;DHT22;6006;49.696;8.662;2023-10-31T13:52:17;14.80;1.00
11894;DHT22;6006;49.696;8.662;2023-10-31T13:54:44;14.70;1.00
11894;DHT22;6006;49.696;8.662;2023-10-31T13:57:11;14.60;1.00
11894;DHT22;6006;49.696;8.662;2023-10-31T13:59:41;14.70;1.00
11894;DHT22;6006;49.696;8.662;2023-10-31T14:02:08;14.70;54.10
11894;DHT22;6006;49.696;8.662;2023-10-31T14:04:35;14.40;99.90
11894;DHT22;6006;49.696;8.662;2023-10-31T14:07:01;14.30;1.00
11894;DHT22;6006;49.696;8.662;2023-10-31T14:09:28;14.10;99.90
11894;DHT22;6006;49.696;8.662;2023-10-31T14:11:56;14.10;99.90
11894;DHT22;6006;49.696;8.662;2023-10-31T14:14:23;13.80;99.90
11894;DHT22;6006;49.696;8.662;2023-10-31T14:16:51;13.70;1.00
11894;DHT22;6006;49.696;8.662;2023-10-31T14:19:18;13.80;1.00
11894;DHT22;6006;49.696;8.662;2023-10-31T14:21:45;13.90;99.90
11894;DHT22;6006;49.696;8.662;2023-10-31T14:24:12;14.00;30.50
11894;DHT22;6006;49.696;8.662;2023-10-31T14:26:39;14.00;1.00
11894;DHT22;6006;49.696;8.662;2023-10-31T14:29:08;14.00;99.90
11894;DHT22;6006;49.696;8.662;2023-10-31T14:31:40;13.80;1.00
11894;DHT22;6006;49.696;8.662;2023-10-31T14:34:08;13.60;99.90
11894;DHT22;6006;49.696;8.662;2023-10-31T14:36:35;13.60;1.00
11894;DHT22;6006;49.696;8.662;2023-10-31T14:39:02;13.50;1.00
11894;DHT22;6006;49.696;8.662;2023-10-31T14:41:30;13.50;1.00
11894;DHT22;6006;49.696;8.662;2023-10-31T14:43:59;13.60;1.00
11894;DHT22;6006;49.696;8.662;2023-10-31T14:46:26;13.70;1.00
11894;DHT22;6006;49.696;8.662;2023-10-31T14:48:54;13.80;1.00
11894;DHT22;6006;49.696;8.662;2023-10-31T14:51:22;13.80;1.00
11894;DHT22;6006;49.696;8.662;2023-10-31T14:53:49;13.80;1.00
11894;DHT22;6006;49.696;8.662;2023-10-31T14:56:16;13.80;99.90
11894;DHT22;6006;49.696;8.662;2023-10-31T14:58:43;13.60;8.00
11894;DHT22;6006;49.696;8.662;2023-10-31T15:01:10;13.50;1.00
11894;DHT22;6006;49.696;8.662;2023-10-31T15:03:37;13.50;1.00
11894;DHT22;6006;49.696;8.662;2023-10-31T15:06:04;13.40;1.00
11894;DHT22;6006;49.696;8.662;2023-10-31T15:08:34;13.30;1.00
11894;DHT22;6006;49.696;8.662;2023-10-31T15:11:01;13.10;1.00
11894;DHT22;6006;49.696;8.662;2023-10-31T15:13:28;13.00;99.90
11894;DHT22;6006;49.696;8.662;2023-10-31T15:15:55;13.00;1.00
11894;DHT22;6006;49.696;8.662;2023-10-31T15:18:22;13.00;1.00
11894;DHT22;6006;49.696;8.662;2023-10-31T15:20:48;13.00;99.90
11894;DHT22;6006;49.696;8.662;2023-10-31T15:23:15;12.90;99.90
11894;DHT22;6006;49.696;8.662;2023-10-31T15:25:44;12.90;99.90
11894;DHT22;6006;49.696;8.662;2023-10-31T15:28:11;12.80;1.00
11894;DHT22;6006;49.696;8.662;2023-10-31T15:30:38;12.70;1.00
11894;DHT22;6006;49.696;8.662;2023-10-31T15:33:05;12.70;1.00
11894;DHT22;6006;49.696;8.662;2023-10-31T15:35:32;12.60;1.00
11894;DHT22;6006;49.696;8.662;2023-10-31T15:38:00;12.60;99.90
11894;DHT22;6006;49.696;8.662;2023-10-31T15:40:27;12.50;99.90
11894;DHT22;6006;49.696;8.662;2023-10-31T15:42:56;12.40;99.90
11894;DHT22;6006;49.696;8.662;2023-10-31T15:45:22;12.30;1.00
11894;DHT22;6006;49.696;8.662;2023-10-31T15:47:49;12.10;1.00
11894;DHT22;6006;49.696;8.662;2023-10-31T15:50:16;12.00;99.90
11894;DHT22;6006;49.696;8.662;2023-10-31T15:52:43;11.90;1.00